createdAt,value
2022-11-27T00:01:17.904Z,13.02
2022-11-27T00:04:19.960Z,13.55
2022-11-27T00:07:21.996Z,14.02
2022-11-27T00:10:24.211Z,12.73
2022-11-27T00:13:26.194Z,11.95
2022-11-27T00:16:29.079Z,12.93
2022-11-27T00:19:31.235Z,13.00
2022-11-27T00:22:33.297Z,11.13
2022-11-27T00:25:35.395Z,10.43
2022-11-27T00:28:38.207Z,11.13
2022-11-27T00:31:40.282Z,13.00
2022-11-27T00:34:42.516Z,10.27
2022-11-27T00:37:44.719Z,10.60
2022-11-27T00:40:49.777Z,10.85
2022-11-27T00:43:53.133Z,12.63
2022-11-27T00:46:55.552Z,11.70
2022-11-27T00:49:57.903Z,10.35
2022-11-27T00:53:00.096Z,12.63
2022-11-27T00:56:02.450Z,11.40
2022-11-27T00:59:06.449Z,11.52
2022-11-27T01:02:08.656Z,10.57
2022-11-27T01:05:10.870Z,9.40
2022-11-27T01:08:12.943Z,10.75
2022-11-27T01:11:26.846Z,10.32
2022-11-27T01:14:28.937Z,10.85
2022-11-27T01:17:31.157Z,11.30
2022-11-27T01:20:33.398Z,11.15
2022-11-27T01:23:35.599Z,10.70
2022-11-27T01:26:37.625Z,9.90
2022-11-27T01:29:39.794Z,10.55
2022-11-27T01:32:41.824Z,9.43
2022-11-27T01:35:43.893Z,9.98
2022-11-27T01:38:45.926Z,10.48
2022-11-27T01:41:49.264Z,9.73
2022-11-27T01:44:54.431Z,10.07
2022-11-27T01:48:03.459Z,8.90
2022-11-27T01:51:07.023Z,9.52
2022-11-27T01:54:10.659Z,10.30
2022-11-27T01:57:18.216Z,8.32
2022-11-27T02:00:21.328Z,8.13
2022-11-27T02:03:23.818Z,8.23
2022-11-27T02:06:26.178Z,6.70
2022-11-27T02:09:30.221Z,6.75
2022-11-27T02:12:41.021Z,7.13
2022-11-27T02:16:19.132Z,7.38
2022-11-27T02:19:39.660Z,5.65
2022-11-27T02:23:23.978Z,7.70
2022-11-27T02:26:43.904Z,7.18
2022-11-27T02:29:50.298Z,6.35
2022-11-27T02:32:59.501Z,7.05
2022-11-27T02:36:10.122Z,6.22
2022-11-27T02:39:18.908Z,7.45
2022-11-27T02:42:22.030Z,7.50
2022-11-27T02:45:28.723Z,6.50
2022-11-27T02:48:38.946Z,6.13
2022-11-27T02:51:46.850Z,6.07
2022-11-27T02:54:52.361Z,6.82
2022-11-27T02:57:57.702Z,6.93
2022-11-27T03:01:01.192Z,7.68
2022-11-27T03:04:08.854Z,7.60
2022-11-27T03:07:31.127Z,7.60
2022-11-27T03:10:43.851Z,7.15
2022-11-27T03:13:56.113Z,7.57
2022-11-27T03:17:16.842Z,8.45
2022-11-27T03:20:41.415Z,8.40
2022-11-27T03:23:43.485Z,7.40
2022-11-27T03:26:45.731Z,8.30
2022-11-27T03:29:59.638Z,7.45
2022-11-27T03:33:02.664Z,7.85
2022-11-27T03:36:14.694Z,6.32
2022-11-27T03:39:17.425Z,7.13
2022-11-27T03:42:30.789Z,5.85
2022-11-27T03:45:43.731Z,6.68
2022-11-27T03:49:18.781Z,5.93
2022-11-27T03:52:28.218Z,6.28
2022-11-27T03:56:09.987Z,6.97
2022-11-27T03:59:25.722Z,7.93
2022-11-27T04:02:31.935Z,6.70
2022-11-27T04:05:33.865Z,6.75
2022-11-27T04:08:36.266Z,7.03
2022-11-27T04:11:38.385Z,7.68
2022-11-27T04:14:40.570Z,7.97
2022-11-27T04:17:42.762Z,9.13
2022-11-27T04:20:44.922Z,8.93
2022-11-27T04:23:47.039Z,7.78
2022-11-27T04:26:49.063Z,8.77
2022-11-27T04:29:51.085Z,8.02
2022-11-27T04:32:53.140Z,11.38
2022-11-27T04:35:56.082Z,10.88
2022-11-27T04:38:58.151Z,10.68
2022-11-27T04:42:00.223Z,10.23
2022-11-27T04:45:02.161Z,9.48
2022-11-27T04:48:05.058Z,8.20
2022-11-27T04:51:07.154Z,8.00
2022-11-27T04:54:09.205Z,8.00
2022-11-27T04:57:11.245Z,9.00
2022-11-27T05:00:13.716Z,7.45
2022-11-27T05:03:16.272Z,8.65
2022-11-27T05:06:18.530Z,7.78
2022-11-27T05:09:20.844Z,7.82
2022-11-27T05:12:22.990Z,7.72
2022-11-27T05:15:24.926Z,7.90
2022-11-27T05:18:27.366Z,8.63
2022-11-27T05:21:30.671Z,7.90
2022-11-27T05:24:32.782Z,9.88
2022-11-27T05:27:35.798Z,8.20
2022-11-27T05:30:37.896Z,9.55
2022-11-27T05:33:39.893Z,8.43
2022-11-27T05:36:42.656Z,8.35
2022-11-27T05:39:44.596Z,8.48
2022-11-27T05:42:46.528Z,8.25
2022-11-27T05:45:48.631Z,9.70
2022-11-27T05:48:50.732Z,8.55
2022-11-27T05:51:52.794Z,9.23
2022-11-27T05:54:56.530Z,8.38
2022-11-27T05:57:58.503Z,8.05
2022-11-27T06:01:01.385Z,8.48
2022-11-27T06:04:03.334Z,8.35
2022-11-27T06:07:05.413Z,8.93
2022-11-27T06:10:07.990Z,9.73
2022-11-27T06:13:09.982Z,9.90
2022-11-27T06:16:20.955Z,9.38
2022-11-27T06:19:23.423Z,9.00
2022-11-27T06:22:25.558Z,11.40
2022-11-27T06:25:34.887Z,10.60
2022-11-27T06:28:37.063Z,9.20
2022-11-27T06:31:39.963Z,10.27
2022-11-27T06:34:42.473Z,9.95
2022-11-27T06:37:44.675Z,11.10
2022-11-27T06:40:46.669Z,10.80
2022-11-27T06:43:49.216Z,10.30
2022-11-27T06:46:54.718Z,10.90
2022-11-27T06:49:58.987Z,10.30
2022-11-27T06:53:01.419Z,11.10
2022-11-27T06:56:05.874Z,12.07
2022-11-27T06:59:08.415Z,10.32
2022-11-27T07:02:15.066Z,11.15
2022-11-27T07:05:17.189Z,11.95
2022-11-27T07:08:19.410Z,11.80
2022-11-27T07:11:24.082Z,12.75
2022-11-27T07:14:26.277Z,11.95
2022-11-27T07:17:28.318Z,7.05
2022-11-27T07:20:30.395Z,11.38
2022-11-27T07:23:32.501Z,11.35
2022-11-27T07:26:34.662Z,10.32
2022-11-27T07:29:36.643Z,8.57
2022-11-27T07:32:38.714Z,8.98
2022-11-27T07:35:43.881Z,9.00
2022-11-27T07:38:46.890Z,9.93
2022-11-27T07:41:48.888Z,7.95
2022-11-27T07:44:51.124Z,8.93
2022-11-27T07:47:53.253Z,8.38
2022-11-27T07:50:55.246Z,9.82
2022-11-27T07:53:57.482Z,9.43
2022-11-27T07:56:59.439Z,7.72
2022-11-27T08:00:01.484Z,8.93
2022-11-27T08:03:06.832Z,9.90
2022-11-27T08:06:17.857Z,9.20
2022-11-27T08:09:20.025Z,9.82
2022-11-27T08:12:23.524Z,9.25
2022-11-27T08:15:25.560Z,10.23
2022-11-27T08:18:27.680Z,10.88
2022-11-27T08:21:30.775Z,11.38
2022-11-27T08:24:33.657Z,10.48
2022-11-27T08:27:36.635Z,11.40
2022-11-27T08:30:38.678Z,12.55
2022-11-27T08:33:41.258Z,10.10
2022-11-27T08:36:43.233Z,11.50
2022-11-27T08:39:45.269Z,10.10
2022-11-27T08:42:47.393Z,11.25
2022-11-27T08:45:49.768Z,10.30
2022-11-27T08:48:51.904Z,10.10
2022-11-27T08:51:53.943Z,10.50
2022-11-27T08:54:58.053Z,10.20
2022-11-27T08:58:00.233Z,9.73
2022-11-27T09:01:18.508Z,10.07
2022-11-27T09:04:20.635Z,10.70
2022-11-27T09:07:22.878Z,9.75
2022-11-27T09:10:25.389Z,10.43
2022-11-27T09:13:28.255Z,9.23
2022-11-27T09:16:30.987Z,10.73
2022-11-27T09:19:33.374Z,8.68
2022-11-27T09:22:36.589Z,8.90
2022-11-27T09:25:40.986Z,9.10
2022-11-27T09:28:44.665Z,7.88
2022-11-27T09:31:46.866Z,8.73
2022-11-27T09:34:49.013Z,7.90
2022-11-27T09:37:51.079Z,8.20
2022-11-27T09:41:01.792Z,10.57
2022-11-27T09:44:48.623Z,8.73
2022-11-27T09:47:55.713Z,8.70
2022-11-27T09:50:59.651Z,8.85
2022-11-27T09:54:10.223Z,10.43
2022-11-27T09:57:16.905Z,9.52
2022-11-27T10:00:20.843Z,8.95
2022-11-27T10:03:28.190Z,9.85
2022-11-27T10:06:48.328Z,8.98
2022-11-27T10:09:56.666Z,10.65
2022-11-27T10:13:17.196Z,12.02
2022-11-27T10:16:24.790Z,13.00
2022-11-27T10:19:51.667Z,14.75
2022-11-27T10:23:19.765Z,14.20
2022-11-27T10:26:50.951Z,14.32
2022-11-27T10:29:54.899Z,12.48
2022-11-27T10:32:58.790Z,16.20
2022-11-27T10:36:01.454Z,13.32
2022-11-27T10:39:07.176Z,13.38
2022-11-27T10:42:54.130Z,12.32
2022-11-27T10:46:09.846Z,14.50
2022-11-27T10:49:12.007Z,14.13
2022-11-27T10:52:16.673Z,14.48
2022-11-27T10:55:38.165Z,15.75
2022-11-27T10:58:47.325Z,14.60
2022-11-27T11:01:51.093Z,13.50
2022-11-27T11:05:16.232Z,14.75
2022-11-27T11:08:19.529Z,14.90
2022-11-27T11:11:26.702Z,14.23
2022-11-27T11:14:28.764Z,15.00
2022-11-27T11:17:37.870Z,13.07
2022-11-27T11:20:47.165Z,15.90
2022-11-27T11:24:01.586Z,16.20
2022-11-27T11:27:15.275Z,15.05
2022-11-27T11:30:26.450Z,16.25
2022-11-27T11:33:28.810Z,16.23
2022-11-27T11:36:31.108Z,13.60
2022-11-27T11:39:47.721Z,26.05
2022-11-27T11:43:05.640Z,28.52
2022-11-27T11:46:17.818Z,15.13
2022-11-27T11:49:26.603Z,15.63
2022-11-27T11:53:17.148Z,15.10
2022-11-27T11:56:22.871Z,42.70
2022-11-27T12:00:01.474Z,14.95
2022-11-27T12:03:32.468Z,16.48
2022-11-27T12:07:01.055Z,13.20
2022-11-27T12:10:21.513Z,16.73
2022-11-27T12:13:42.929Z,14.57
2022-11-27T12:17:12.275Z,15.65
2022-11-27T12:20:24.337Z,17.52
2022-11-27T12:24:05.607Z,15.95
2022-11-27T12:27:32.135Z,15.32
2022-11-27T12:30:55.779Z,17.52
2022-11-27T12:34:19.516Z,16.38
2022-11-27T12:37:21.607Z,17.05
2022-11-27T12:40:43.425Z,19.13
2022-11-27T12:43:52.426Z,15.82
2022-11-27T12:47:21.480Z,17.42
2022-11-27T12:50:56.625Z,16.75
2022-11-27T12:54:06.049Z,17.65
2022-11-27T12:57:16.678Z,17.83
2022-11-27T13:00:21.849Z,18.45
2022-11-27T13:03:55.914Z,20.73
2022-11-27T13:07:21.674Z,19.90
2022-11-27T13:10:31.420Z,19.25
2022-11-27T13:13:54.987Z,21.35
2022-11-27T13:17:03.198Z,19.60
2022-11-27T13:20:14.792Z,21.55
2022-11-27T13:23:17.329Z,21.00
2022-11-27T13:26:32.990Z,21.17
2022-11-27T13:29:59.863Z,21.00
2022-11-27T13:33:03.862Z,21.83
2022-11-27T13:36:09.325Z,19.08
2022-11-27T13:39:30.172Z,21.42
2022-11-27T13:42:36.288Z,20.98
2022-11-27T13:45:38.462Z,22.52
2022-11-27T13:48:44.232Z,20.02
2022-11-27T13:51:46.368Z,21.23
2022-11-27T13:55:00.510Z,19.85
2022-11-27T13:58:04.273Z,22.73
2022-11-27T14:01:32.629Z,21.30
2022-11-27T14:04:35.530Z,21.48
2022-11-27T14:07:52.641Z,20.98
2022-11-27T14:10:59.433Z,20.83
2022-11-27T14:14:12.571Z,22.13
2022-11-27T14:17:34.059Z,21.50
2022-11-27T14:20:58.489Z,22.08
2022-11-27T14:24:06.034Z,17.85
2022-11-27T14:27:23.277Z,22.52
2022-11-27T14:30:36.217Z,21.27
2022-11-27T14:34:07.610Z,22.08
2022-11-27T14:37:07.771Z,24.90
2022-11-27T14:40:35.468Z,21.30
2022-11-27T14:43:38.150Z,23.95
2022-11-27T14:46:42.072Z,14.90
2022-11-27T14:49:46.253Z,15.00
2022-11-27T14:52:55.375Z,12.38
2022-11-27T14:56:01.423Z,13.55
2022-11-27T14:59:04.543Z,13.05
2022-11-27T15:02:06.689Z,14.15
2022-11-27T15:05:20.721Z,11.30
2022-11-27T15:08:24.743Z,14.15
2022-11-27T15:11:54.094Z,13.45
2022-11-27T15:15:11.967Z,12.57
2022-11-27T15:18:20.634Z,13.68
2022-11-27T15:21:28.154Z,13.43
2022-11-27T15:24:41.564Z,14.25
2022-11-27T15:27:48.329Z,12.07
2022-11-27T15:30:51.598Z,13.95
2022-11-27T15:34:39.076Z,14.93
2022-11-27T15:41:42.291Z,8.30
2022-11-27T15:44:50.369Z,9.10
2022-11-27T15:47:58.874Z,8.35
2022-11-27T15:54:04.674Z,6.80
2022-11-27T15:57:06.719Z,10.60
2022-11-27T16:00:10.263Z,9.73
2022-11-27T16:03:15.811Z,10.60
2022-11-27T16:06:21.030Z,8.80
2022-11-27T16:09:27.028Z,10.18
2022-11-27T16:12:29.212Z,7.25
2022-11-27T16:15:33.222Z,10.00
2022-11-27T16:18:37.993Z,7.97
2022-11-27T16:21:40.199Z,10.80
2022-11-27T16:24:42.655Z,13.68
2022-11-27T16:27:45.840Z,11.55
2022-11-27T16:30:50.113Z,9.13
2022-11-27T16:33:53.050Z,11.98
2022-11-27T16:36:57.791Z,13.32
2022-11-27T16:40:00.988Z,11.20
2022-11-27T16:43:04.134Z,11.75
2022-11-27T16:46:10.959Z,13.10
2022-11-27T16:49:13.605Z,10.75
2022-11-27T16:52:19.368Z,12.57
2022-11-27T16:55:22.431Z,9.57
2022-11-27T16:58:24.659Z,12.48
2022-11-27T17:01:30.085Z,12.07
2022-11-27T17:04:32.112Z,10.23
2022-11-27T17:07:34.638Z,11.15
2022-11-27T17:10:36.723Z,9.55
2022-11-27T17:13:39.528Z,11.45
2022-11-27T17:16:42.895Z,10.57
2022-11-27T17:19:47.575Z,10.80
2022-11-27T17:22:49.758Z,9.85
2022-11-27T17:25:52.084Z,10.13
2022-11-27T17:28:57.767Z,9.48
2022-11-27T17:31:59.952Z,9.07
2022-11-27T17:35:03.278Z,9.65
2022-11-27T17:38:05.828Z,9.50
2022-11-27T17:41:11.302Z,9.27
2022-11-27T17:44:14.241Z,10.07
2022-11-27T17:47:16.284Z,10.75
2022-11-27T17:50:18.424Z,9.52
2022-11-27T17:53:21.725Z,11.18
2022-11-27T17:56:24.458Z,10.65
2022-11-27T17:59:26.753Z,13.80
2022-11-27T18:02:29.525Z,14.05
2022-11-27T18:05:32.253Z,13.85
2022-11-27T18:08:34.459Z,14.05
2022-11-27T18:11:36.800Z,13.15
2022-11-27T18:14:39.321Z,14.38
2022-11-27T18:17:42.577Z,13.90
2022-11-27T18:20:44.991Z,12.65
2022-11-27T18:24:21.497Z,12.73
2022-11-27T18:27:14.866Z,12.95
2022-11-27T18:30:17.203Z,12.32
2022-11-27T18:33:19.279Z,11.77
2022-11-27T18:36:21.222Z,13.18
2022-11-27T18:39:23.604Z,12.90
2022-11-27T18:42:26.950Z,13.27
2022-11-27T18:45:33.228Z,11.90
2022-11-27T18:48:39.429Z,11.57
2022-11-27T18:51:41.587Z,11.57
2022-11-27T18:54:44.451Z,12.40
2022-11-27T18:57:46.939Z,12.20
2022-11-27T19:00:48.990Z,11.77
2022-11-27T19:03:51.309Z,13.63
2022-11-27T19:06:53.446Z,11.52
2022-11-27T19:09:56.642Z,11.15
2022-11-27T19:12:58.819Z,9.98
2022-11-27T19:16:08.906Z,12.70
2022-11-27T19:19:52.200Z,11.93
2022-11-27T19:22:38.378Z,13.13
2022-11-27T19:25:40.746Z,13.23
2022-11-27T19:28:45.419Z,10.43
2022-11-27T19:31:47.431Z,11.93
2022-11-27T19:34:50.921Z,11.73
2022-11-27T19:37:53.131Z,11.98
2022-11-27T19:40:55.833Z,11.20
2022-11-27T19:44:03.691Z,10.77
2022-11-27T19:47:06.800Z,13.63
2022-11-27T19:50:09.401Z,11.05
2022-11-27T19:53:11.941Z,11.07
2022-11-27T19:56:14.180Z,11.38
2022-11-27T19:59:17.659Z,10.25
2022-11-27T20:02:22.330Z,11.95
2022-11-27T20:05:24.511Z,10.77
2022-11-27T20:08:26.668Z,11.32
2022-11-27T20:11:34.535Z,11.05
2022-11-27T20:14:38.639Z,11.98
2022-11-27T20:17:41.849Z,11.73
2022-11-27T20:20:44.041Z,13.65
2022-11-27T20:23:47.643Z,12.70
2022-11-27T20:26:50.036Z,12.85
2022-11-27T20:29:54.810Z,12.93
2022-11-27T20:32:57.027Z,12.77
2022-11-27T20:35:59.867Z,13.45
2022-11-27T20:39:02.589Z,13.45
2022-11-27T20:42:04.927Z,13.52
2022-11-27T20:45:08.507Z,12.70
2022-11-27T20:48:11.178Z,13.10
2022-11-27T20:51:15.907Z,12.38
2022-11-27T20:54:18.358Z,11.18
2022-11-27T20:57:20.818Z,11.18
2022-11-27T21:00:23.625Z,12.57
2022-11-27T21:03:29.745Z,11.25
2022-11-27T21:06:32.944Z,11.68
2022-11-27T21:09:36.280Z,10.90
2022-11-27T21:12:38.546Z,11.10
2022-11-27T21:15:45.752Z,11.45
2022-11-27T21:18:47.895Z,10.65
2022-11-27T21:21:50.899Z,11.32
2022-11-27T21:24:53.024Z,13.40
2022-11-27T21:27:58.156Z,11.43
2022-11-27T21:31:08.596Z,12.32
2022-11-27T21:34:13.332Z,11.57
2022-11-27T21:37:15.790Z,11.48
2022-11-27T21:40:18.790Z,14.80
2022-11-27T21:43:20.895Z,13.27
2022-11-27T21:46:25.170Z,12.93
2022-11-27T21:49:27.338Z,12.88
2022-11-27T21:52:29.856Z,13.02
2022-11-27T21:55:32.027Z,12.93
2022-11-27T21:58:34.927Z,13.98
2022-11-27T22:01:37.915Z,12.95
2022-11-27T22:04:40.373Z,14.85
2022-11-27T22:07:43.096Z,13.80
2022-11-27T22:10:46.453Z,13.93
2022-11-27T22:13:48.688Z,13.20
2022-11-27T22:16:51.036Z,13.48
2022-11-27T22:19:53.356Z,12.50
2022-11-27T22:22:55.429Z,14.20
2022-11-27T22:26:05.365Z,14.45
2022-11-27T22:29:07.540Z,14.63
2022-11-27T22:32:09.501Z,14.40
2022-11-27T22:35:11.610Z,14.25
2022-11-27T22:38:13.923Z,14.63
2022-11-27T22:41:17.053Z,15.13
2022-11-27T22:44:21.088Z,12.85
2022-11-27T22:47:24.409Z,13.23
2022-11-27T22:50:27.441Z,14.52
2022-11-27T22:53:30.279Z,12.10
2022-11-27T22:56:36.525Z,14.32
2022-11-27T22:59:39.035Z,13.77
2022-11-27T23:02:42.727Z,14.02
2022-11-27T23:05:45.470Z,12.23
2022-11-27T23:08:48.820Z,12.88
2022-11-27T23:11:50.986Z,13.80
2022-11-27T23:14:53.053Z,15.45
2022-11-27T23:17:55.140Z,13.75
2022-11-27T23:20:57.194Z,14.93
2022-11-27T23:23:59.271Z,14.18
2022-11-27T23:27:01.277Z,13.77
2022-11-27T23:30:03.561Z,15.27
2022-11-27T23:33:07.486Z,14.52
2022-11-27T23:36:10.257Z,14.68
2022-11-27T23:39:13.433Z,16.65
2022-11-27T23:42:15.450Z,14.63
2022-11-27T23:45:17.514Z,13.90
2022-11-27T23:48:20.540Z,13.63
2022-11-27T23:51:26.811Z,15.38
2022-11-27T23:54:28.884Z,14.40
2022-11-27T23:57:31.050Z,12.52
